Time;durP1;ratioP1;P1;durP2;ratioP2;P2;SDS_P1;SDS_P2;PMS_P1;PMS_P2;Temp;Humidity;BMP_temperature;BMP_pressure;BME280_temperature;BME280_humidity;BME280_pressure;Samples;Min_cycle;Max_cycle;Signal;HPM_P1;HPM_P2
2022/03/28 00:01:59;;;;;;;9.70;6.63;;;15.20;46.50;;;;;;5132793;27;21211;-83
2022/03/28 00:04:26;;;;;;;8.53;6.70;;;15.20;46.30;;;;;;5134694;27;20534;-83
2022/03/28 00:06:54;;;;;;;10.50;6.80;;;15.20;46.60;;;;;;5133897;27;20527;-83
2022/03/28 00:09:21;;;;;;;11.47;7.30;;;15.00;47.30;;;;;;5118401;27;20838;-83
2022/03/28 00:11:48;;;;;;;12.57;6.17;;;15.00;47.50;;;;;;5133333;27;20440;-83
2022/03/28 00:14:15;;;;;;;10.43;7.30;;;15.00;47.30;;;;;;5133791;27;20433;-83
2022/03/28 00:16:42;;;;;;;12.83;7.63;;;15.00;47.20;;;;;;5135695;27;20446;-84
2022/03/28 00:19:09;;;;;;;9.23;6.47;;;14.90;47.00;;;;;;5134103;27;20469;-84
2022/03/28 00:21:36;;;;;;;10.20;6.80;;;14.90;47.10;;;;;;5133500;27;20467;-85
2022/03/28 00:24:05;;;;;;;13.23;7.97;;;14.90;47.10;;;;;;5114840;27;20476;-83
2022/03/28 00:26:33;;;;;;;12.30;7.30;;;14.80;47.00;;;;;;5131924;27;20446;-85
2022/03/28 00:29:00;;;;;;;11.70;6.70;;;14.80;47.00;;;;;;5131912;27;20469;-83
2022/03/28 00:31:27;;;;;;;12.30;7.00;;;14.80;47.10;;;;;;5131749;27;20450;-83
2022/03/28 00:33:54;;;;;;;9.20;6.83;;;14.70;47.10;;;;;;5132852;27;21034;-83
2022/03/28 00:36:21;;;;;;;8.10;6.30;;;14.70;47.00;;;;;;5132728;27;20468;-84
2022/03/28 00:38:48;;;;;;;10.87;6.40;;;14.70;46.90;;;;;;5133289;27;20465;-83
2022/03/28 00:41:17;;;;;;;12.00;7.03;;;14.70;46.90;;;;;;5120791;27;20450;-82
2022/03/28 00:43:45;;;;;;;9.97;6.40;;;14.70;46.90;;;;;;5133892;27;20992;-83
2022/03/28 00:46:13;;;;;;;13.13;6.57;;;14.60;46.80;;;;;;5133010;27;20808;-82
2022/03/28 00:48:42;;;;;;;13.57;6.90;;;14.60;47.10;;;;;;5133895;27;20563;-83
2022/03/28 00:51:11;;;;;;;11.17;7.07;;;14.50;47.00;;;;;;5132051;27;20468;-81
2022/03/28 00:53:38;;;;;;;9.43;5.70;;;14.50;47.00;;;;;;5134382;27;20880;-83
2022/03/28 00:56:06;;;;;;;9.43;6.30;;;14.50;46.90;;;;;;5131518;27;20442;-83
2022/03/28 00:58:34;;;;;;;10.50;6.70;;;14.50;46.90;;;;;;5135482;27;20465;-83
2022/03/28 01:01:02;;;;;;;13.00;7.53;;;14.40;46.90;;;;;;5134236;27;20477;-83
2022/03/28 01:03:29;;;;;;;10.10;6.83;;;14.40;46.90;;;;;;5133580;27;20559;-84
2022/03/28 01:05:56;;;;;;;11.37;6.10;;;14.30;47.00;;;;;;5131464;27;20536;-83
2022/03/28 01:08:23;;;;;;;11.17;6.17;;;14.30;46.90;;;;;;5131115;27;20461;-83
2022/03/28 01:10:54;;;;;;;10.63;6.77;;;14.30;46.90;;;;;;5132564;27;20437;-82
2022/03/28 01:13:21;;;;;;;11.57;7.40;;;14.20;46.90;;;;;;5134228;27;21002;-83
2022/03/28 01:15:50;;;;;;;12.90;7.50;;;14.10;47.10;;;;;;5115136;27;20928;-84
2022/03/28 01:18:16;;;;;;;8.00;5.93;;;14.10;47.30;;;;;;5113499;27;22130;-83
2022/03/28 01:20:43;;;;;;;12.60;7.00;;;14.00;47.20;;;;;;5131166;27;20440;-83
2022/03/28 01:23:11;;;;;;;8.23;6.17;;;14.00;47.20;;;;;;5131100;27;20469;-83
2022/03/28 01:25:38;;;;;;;11.70;6.43;;;14.00;47.40;;;;;;5133317;27;20993;-83
2022/03/28 01:28:06;;;;;;;9.77;6.60;;;14.00;47.50;;;;;;5131016;27;20448;-83
2022/03/28 01:30:33;;;;;;;9.50;6.37;;;13.90;47.30;;;;;;5133597;27;20449;-82
2022/03/28 01:33:01;;;;;;;9.47;6.30;;;13.90;47.50;;;;;;5112012;27;20438;-84
2022/03/28 01:35:30;;;;;;;12.47;6.57;;;13.90;47.50;;;;;;5131583;27;20457;-84
2022/03/28 01:37:58;;;;;;;11.70;6.07;;;13.80;47.50;;;;;;5133222;27;20437;-81
2022/03/28 01:40:26;;;;;;;9.13;6.40;;;13.80;47.60;;;;;;5128625;27;20452;-83
2022/03/28 01:42:54;;;;;;;10.13;6.27;;;13.80;47.50;;;;;;5131531;27;20462;-83
2022/03/28 01:45:21;;;;;;;9.70;6.17;;;13.70;47.30;;;;;;5132412;27;21176;-83
2022/03/28 01:47:48;;;;;;;9.43;6.27;;;13.70;47.20;;;;;;5122441;27;20515;-82
2022/03/28 01:50:15;;;;;;;11.07;6.63;;;13.60;47.30;;;;;;5129628;27;20548;-83
2022/03/28 01:52:43;;;;;;;10.13;6.67;;;13.60;47.60;;;;;;5133531;27;20445;-84
2022/03/28 01:55:11;;;;;;;11.53;6.50;;;13.60;47.60;;;;;;5131080;27;20829;-82
2022/03/28 01:57:41;;;;;;;11.73;6.70;;;13.50;47.40;;;;;;5133422;27;20763;-82
2022/03/28 02:00:12;;;;;;;11.50;6.70;;;13.50;47.50;;;;;;5131716;27;20464;-82
2022/03/28 02:02:39;;;;;;;7.47;5.73;;;13.50;47.30;;;;;;5133451;27;20454;-83
2022/03/28 02:05:11;;;;;;;13.83;6.10;;;13.50;47.90;;;;;;5130706;27;20476;-83
2022/03/28 02:07:40;;;;;;;11.40;7.07;;;13.40;47.50;;;;;;5134493;27;20891;-83
2022/03/28 02:10:08;;;;;;;10.23;6.00;;;13.40;47.50;;;;;;5129840;27;20485;-83
2022/03/28 02:12:35;;;;;;;9.50;6.50;;;13.30;47.50;;;;;;5134178;27;20453;-83
2022/03/28 02:15:06;;;;;;;10.30;6.30;;;13.30;47.50;;;;;;5132216;27;20450;-83
2022/03/28 02:17:33;;;;;;;8.80;6.00;;;13.30;47.50;;;;;;5132205;27;20450;-82
2022/03/28 02:20:01;;;;;;;12.50;7.63;;;13.30;47.50;;;;;;5110334;27;20538;-84
2022/03/28 02:22:28;;;;;;;12.37;6.70;;;13.30;47.50;;;;;;5129967;27;20438;-83
2022/03/28 02:24:55;;;;;;;12.70;6.40;;;13.20;47.30;;;;;;5130763;27;20475;-83
2022/03/28 02:27:22;;;;;;;11.23;6.40;;;13.20;47.30;;;;;;5132640;27;20875;-83
2022/03/28 02:29:49;;;;;;;11.90;7.20;;;13.10;47.20;;;;;;5131279;27;20548;-82
2022/03/28 02:32:17;;;;;;;10.10;6.60;;;13.10;47.40;;;;;;5131464;27;20445;-84
2022/03/28 02:34:44;;;;;;;11.27;6.40;;;13.00;47.50;;;;;;5133288;27;21293;-83
2022/03/28 02:37:11;;;;;;;9.43;6.03;;;13.00;47.50;;;;;;5128913;27;20461;-83
2022/03/28 02:39:38;;;;;;;10.23;5.80;;;13.00;48.00;;;;;;5115206;27;20477;-82
2022/03/28 02:42:06;;;;;;;12.03;7.20;;;12.90;47.50;;;;;;5130350;27;20451;-83
2022/03/28 02:44:33;;;;;;;10.30;6.03;;;12.90;47.50;;;;;;5131391;27;21009;-83
2022/03/28 02:47:00;;;;;;;9.57;6.20;;;12.90;47.50;;;;;;5130847;27;20452;-84
2022/03/28 02:49:29;;;;;;;10.43;6.53;;;12.90;47.50;;;;;;5132027;27;20475;-83
2022/03/28 02:51:56;;;;;;;7.80;6.07;;;12.90;47.40;;;;;;5131549;27;20452;-82
2022/03/28 02:54:22;;;;;;;10.30;6.97;;;12.80;47.40;;;;;;5130755;27;20531;-84
2022/03/28 02:56:49;;;;;;;10.00;6.03;;;12.70;47.50;;;;;;5132317;27;20458;-84
2022/03/28 02:59:16;;;;;;;14.47;7.87;;;12.70;47.60;;;;;;5132036;27;20498;-83
2022/03/28 03:01:45;;;;;;;13.10;6.33;;;12.60;48.30;;;;;;5133839;27;20536;-83
2022/03/28 03:04:12;;;;;;;14.20;7.40;;;12.60;47.80;;;;;;5129816;27;20473;-83
2022/03/28 03:06:40;;;;;;;10.23;6.13;;;12.60;47.70;;;;;;5131324;27;21252;-84
2022/03/28 03:09:07;;;;;;;10.93;6.70;;;12.60;47.60;;;;;;5131267;27;20481;-84
2022/03/28 03:11:34;;;;;;;9.40;6.40;;;12.60;47.60;;;;;;5110891;27;20442;-83
2022/03/28 03:14:03;;;;;;;12.87;7.07;;;12.60;47.50;;;;;;5128139;27;20448;-83
2022/03/28 03:16:30;;;;;;;12.63;6.60;;;12.50;47.50;;;;;;5112128;27;20781;-84
2022/03/28 03:18:57;;;;;;;11.10;7.63;;;12.50;47.60;;;;;;5128273;27;20473;-81
2022/03/28 03:21:23;;;;;;;9.30;6.70;;;12.40;47.60;;;;;;5128496;27;20448;-83
2022/03/28 03:23:52;;;;;;;8.00;6.80;;;12.40;47.50;;;;;;5131880;27;20480;-83
2022/03/28 03:26:19;;;;;;;9.60;6.90;;;12.40;47.60;;;;;;5135044;27;20452;-83
2022/03/28 03:28:46;;;;;;;10.60;6.77;;;12.40;47.90;;;;;;5137587;27;20468;-82
2022/03/28 03:31:15;;;;;;;9.37;6.50;;;12.40;48.10;;;;;;5137120;27;20511;-83
2022/03/28 03:33:42;;;;;;;8.40;5.83;;;12.30;48.00;;;;;;5136617;27;21028;-84
2022/03/28 03:36:09;;;;;;;11.93;6.87;;;12.30;48.00;;;;;;5136878;27;20565;-83
2022/03/28 03:38:36;;;;;;;9.17;6.73;;;12.30;48.10;;;;;;5138134;27;20465;-83
2022/03/28 03:41:04;;;;;;;9.63;6.60;;;12.30;48.20;;;;;;5127199;27;20840;-84
2022/03/28 03:43:32;;;;;;;12.13;7.00;;;12.20;48.20;;;;;;5137711;27;20445;-82
2022/03/28 03:45:59;;;;;;;12.20;8.07;;;12.20;48.40;;;;;;5135806;27;20953;-83
2022/03/28 03:48:27;;;;;;;9.70;7.30;;;12.10;48.30;;;;;;5139396;27;20984;-83
2022/03/28 03:50:54;;;;;;;10.63;7.10;;;12.10;48.30;;;;;;5136957;27;20545;-82
2022/03/28 03:53:21;;;;;;;10.17;7.10;;;12.10;48.30;;;;;;5137861;27;20445;-82
2022/03/28 03:55:49;;;;;;;12.17;7.93;;;12.00;48.30;;;;;;5136359;27;20455;-84
2022/03/28 03:58:17;;;;;;;10.20;7.53;;;12.00;48.30;;;;;;5137620;27;20492;-84
2022/03/28 04:00:44;;;;;;;11.80;7.77;;;12.00;48.30;;;;;;5140756;27;20533;-83
2022/03/28 04:03:11;;;;;;;9.83;6.67;;;12.00;48.20;;;;;;5137260;27;20464;-83
2022/03/28 04:05:38;;;;;;;10.70;6.67;;;12.00;48.00;;;;;;5136507;27;20469;-83
2022/03/28 04:08:06;;;;;;;13.53;8.07;;;12.00;47.80;;;;;;5117404;27;21137;-83
2022/03/28 04:10:34;;;;;;;12.90;8.13;;;11.80;47.90;;;;;;5136472;27;21042;-82
2022/03/28 04:13:02;;;;;;;13.10;7.70;;;11.80;48.10;;;;;;5135380;27;20444;-82
2022/03/28 04:15:31;;;;;;;12.57;8.70;;;11.70;48.00;;;;;;5138553;27;20441;-83
2022/03/28 04:17:58;;;;;;;11.93;7.83;;;11.70;48.40;;;;;;5136829;27;20448;-82
2022/03/28 04:20:27;;;;;;;13.20;8.83;;;11.60;48.30;;;;;;5140207;27;20477;-82
2022/03/28 04:22:55;;;;;;;14.37;9.37;;;11.70;48.30;;;;;;5136687;27;20449;-84
2022/03/28 04:25:22;;;;;;;13.80;8.47;;;11.70;48.30;;;;;;5118928;27;20990;-83
2022/03/28 04:27:49;;;;;;;13.90;8.73;;;11.70;48.20;;;;;;5138243;27;20440;-84
2022/03/28 04:30:16;;;;;;;14.97;9.20;;;11.70;48.10;;;;;;5138707;27;20882;-84
2022/03/28 04:32:44;;;;;;;17.27;9.40;;;11.60;48.00;;;;;;5139982;27;20449;-83
2022/03/28 04:35:13;;;;;;;20.33;9.90;;;11.50;48.10;;;;;;5136352;27;20441;-83
2022/03/28 04:37:41;;;;;;;18.40;10.53;;;11.50;48.20;;;;;;5117555;27;20701;-82
2022/03/28 04:40:11;;;;;;;16.30;10.57;;;11.50;48.20;;;;;;5118858;27;20460;-84
2022/03/28 04:42:38;;;;;;;13.83;9.43;;;11.50;48.20;;;;;;5133721;27;20446;-83
2022/03/28 04:45:07;;;;;;;13.63;8.40;;;11.50;48.40;;;;;;5113762;27;20463;-85
2022/03/28 04:47:35;;;;;;;12.37;8.07;;;11.50;48.30;;;;;;5133571;27;21239;-82
2022/03/28 04:50:05;;;;;;;11.37;8.50;;;11.50;48.10;;;;;;5105230;27;20477;-84
2022/03/28 04:52:32;;;;;;;17.33;9.60;;;11.50;48.00;;;;;;5134798;27;20999;-82
2022/03/28 04:54:59;;;;;;;13.40;9.60;;;11.40;48.10;;;;;;5132493;27;20444;-82
2022/03/28 04:57:26;;;;;;;16.00;8.97;;;11.40;48.10;;;;;;5136130;27;20540;-83
2022/03/28 04:59:53;;;;;;;11.30;8.23;;;11.40;48.20;;;;;;5132883;27;21065;-83
2022/03/28 05:02:20;;;;;;;13.57;8.13;;;11.40;48.10;;;;;;5133079;27;20484;-83
2022/03/28 05:04:47;;;;;;;18.90;9.30;;;11.40;47.90;;;;;;5134952;27;20480;-80
2022/03/28 05:07:23;;;;;;;17.60;9.37;;;11.40;47.80;;;;;;5134176;27;20936;-81
2022/03/28 05:09:50;;;;;;;19.13;11.23;;;11.30;47.90;;;;;;5130929;27;20488;-80
2022/03/28 05:12:17;;;;;;;17.93;9.33;;;11.30;47.90;;;;;;5132798;27;20445;-82
2022/03/28 05:14:44;;;;;;;12.37;9.37;;;11.20;48.00;;;;;;5132794;27;20505;-83
2022/03/28 05:17:11;;;;;;;20.70;9.43;;;11.20;48.00;;;;;;5130667;27;20445;-83
2022/03/28 05:19:38;;;;;;;17.60;11.30;;;11.20;48.10;;;;;;5117136;27;20485;-83
2022/03/28 05:22:05;;;;;;;18.63;10.40;;;11.20;48.20;;;;;;5129688;27;20461;-85
2022/03/28 05:24:34;;;;;;;16.90;9.97;;;11.10;48.30;;;;;;5131587;27;20468;-83
2022/03/28 05:27:01;;;;;;;18.13;9.83;;;11.10;48.10;;;;;;5131712;27;20949;-84
2022/03/28 05:29:28;;;;;;;14.30;9.20;;;11.10;48.30;;;;;;5131949;27;20457;-83
2022/03/28 05:31:54;;;;;;;14.67;9.20;;;11.20;48.40;;;;;;5133490;27;20453;-82
2022/03/28 05:34:21;;;;;;;13.27;9.17;;;11.20;48.30;;;;;;5130388;27;20442;-83
2022/03/28 05:36:48;;;;;;;14.60;8.90;;;11.20;48.30;;;;;;5131799;27;20513;-82
2022/03/28 05:39:15;;;;;;;14.97;8.70;;;11.10;48.20;;;;;;5130952;27;20832;-82
2022/03/28 05:41:44;;;;;;;11.60;8.33;;;11.10;48.50;;;;;;5130302;27;20438;-82
2022/03/28 05:44:11;;;;;;;11.33;8.77;;;11.10;48.40;;;;;;5131544;27;20497;-84
2022/03/28 05:46:38;;;;;;;16.77;8.97;;;11.10;48.30;;;;;;5133589;27;20449;-82
2022/03/28 05:49:05;;;;;;;17.53;10.23;;;11.10;48.50;;;;;;5130010;27;20480;-82
2022/03/28 05:51:32;;;;;;;14.90;10.53;;;11.10;48.70;;;;;;5131282;27;21056;-82
2022/03/28 05:53:59;;;;;;;14.37;8.70;;;11.10;48.70;;;;;;5131175;27;20454;-81
2022/03/28 05:56:26;;;;;;;23.10;9.53;;;11.10;48.80;;;;;;5131005;27;20446;-82
2022/03/28 05:58:54;;;;;;;11.40;8.50;;;11.10;48.70;;;;;;5113565;27;20855;-84
2022/03/28 06:01:21;;;;;;;15.97;9.53;;;11.20;48.80;;;;;;5131400;27;20476;-85
2022/03/28 06:03:48;;;;;;;12.87;8.40;;;11.20;48.70;;;;;;5133475;27;20449;-82
2022/03/28 06:06:15;;;;;;;14.93;8.90;;;11.20;48.80;;;;;;5131994;27;20472;-84
2022/03/28 06:08:43;;;;;;;17.97;9.67;;;11.10;49.10;;;;;;5125158;27;20908;-83
2022/03/28 06:11:10;;;;;;;14.33;9.63;;;11.10;49.70;;;;;;5129598;27;20453;-83
2022/03/28 06:13:37;;;;;;;19.43;13.23;;;11.00;49.90;;;;;;5132021;27;20460;-82
2022/03/28 06:16:06;;;;;;;21.03;13.70;;;10.90;50.20;;;;;;5129742;27;20472;-83
2022/03/28 06:18:33;;;;;;;20.50;12.40;;;11.00;50.20;;;;;;5132078;27;20513;-82
2022/03/28 06:21:00;;;;;;;15.83;10.53;;;11.00;50.20;;;;;;5132840;27;20465;-82
2022/03/28 06:23:27;;;;;;;16.00;9.80;;;11.10;50.20;;;;;;5133327;27;20442;-85
2022/03/28 06:25:54;;;;;;;13.47;8.50;;;11.10;50.30;;;;;;5130942;27;20474;-83
2022/03/28 06:28:21;;;;;;;20.23;10.80;;;11.10;50.40;;;;;;5132556;27;20826;-84
2022/03/28 06:30:48;;;;;;;17.77;10.73;;;11.10;50.40;;;;;;5131001;27;20446;-83
2022/03/28 06:33:16;;;;;;;16.60;9.50;;;11.10;50.30;;;;;;5133824;27;21140;-83
2022/03/28 06:35:45;;;;;;;26.80;13.50;;;11.10;50.40;;;;;;5131949;27;20446;-84
2022/03/28 06:38:12;;;;;;;32.33;16.80;;;11.10;50.60;;;;;;5131454;27;20448;-84
2022/03/28 06:40:39;;;;;;;36.67;18.63;;;11.10;50.80;;;;;;5133383;27;20453;-85
2022/03/28 06:43:06;;;;;;;32.30;18.10;;;11.20;50.80;;;;;;5132659;27;20450;-84
2022/03/28 06:45:34;;;;;;;33.63;18.43;;;11.20;50.80;;;;;;5132357;27;20472;-83
2022/03/28 06:48:00;;;;;;;42.43;19.27;;;11.20;50.90;;;;;;5132762;27;20446;-82
2022/03/28 06:50:29;;;;;;;30.70;14.47;;;11.20;50.90;;;;;;5114280;27;21047;-83
2022/03/28 06:52:56;;;;;;;24.63;14.00;;;11.20;51.00;;;;;;5129292;27;21362;-83
2022/03/28 06:55:23;;;;;;;28.47;13.67;;;11.20;51.20;;;;;;5129866;27;20453;-83
2022/03/28 06:57:51;;;;;;;24.60;12.97;;;11.30;51.30;;;;;;5131380;27;20453;-82
2022/03/28 07:00:18;;;;;;;25.30;13.50;;;11.30;51.30;;;;;;5132727;27;20909;-82
2022/03/28 07:02:45;;;;;;;23.63;12.77;;;11.30;51.30;;;;;;5130064;27;21190;-82
2022/03/28 07:05:13;;;;;;;21.83;11.80;;;11.40;51.40;;;;;;5130427;27;20842;-82
2022/03/28 07:07:42;;;;;;;21.10;13.13;;;11.40;51.60;;;;;;5132116;27;20445;-83
2022/03/28 07:10:11;;;;;;;19.00;12.90;;;11.40;51.60;;;;;;5129683;27;20470;-83
2022/03/28 07:12:38;;;;;;;19.07;11.07;;;11.50;52.00;;;;;;5111927;27;20450;-82
2022/03/28 07:15:07;;;;;;;17.93;11.83;;;11.50;51.90;;;;;;5130058;27;20445;-83
2022/03/28 07:17:45;;;;;;;21.37;12.57;;;11.60;51.90;;;;;;5130739;27;20446;-84
2022/03/28 07:20:12;;;;;;;18.07;11.40;;;11.60;51.80;;;;;;5128772;27;20472;-83
2022/03/28 07:22:41;;;;;;;14.70;10.07;;;11.70;51.90;;;;;;5131530;27;20445;-83
2022/03/28 07:25:09;;;;;;;18.50;10.13;;;11.80;51.90;;;;;;5130068;27;20464;-83
2022/03/28 07:27:38;;;;;;;22.10;9.50;;;11.80;52.10;;;;;;5111053;27;20445;-83
2022/03/28 07:30:07;;;;;;;17.53;9.67;;;11.90;52.00;;;;;;5129859;27;20844;-84
2022/03/28 07:32:34;;;;;;;20.20;9.37;;;11.90;52.30;;;;;;5110818;27;20481;-83
2022/03/28 07:35:01;;;;;;;14.67;9.90;;;12.00;52.60;;;;;;5127130;27;20444;-83
2022/03/28 07:37:28;;;;;;;14.97;9.23;;;12.00;52.70;;;;;;5131297;27;20445;-83
2022/03/28 07:39:57;;;;;;;14.57;9.13;;;12.00;52.80;;;;;;5130500;27;20469;-84
2022/03/28 07:42:24;;;;;;;14.47;10.37;;;12.00;53.30;;;;;;5131732;27;20450;-84
2022/03/28 07:44:55;;;;;;;19.97;11.60;;;12.00;53.70;;;;;;5112596;27;20454;-85
2022/03/28 07:47:23;;;;;;;21.73;11.90;;;12.00;53.80;;;;;;5129308;27;20439;-84
2022/03/28 07:49:50;;;;;;;19.93;11.13;;;12.10;53.90;;;;;;5131362;27;20469;-84
2022/03/28 07:52:17;;;;;;;12.60;8.90;;;12.10;53.90;;;;;;5131291;27;20450;-84
2022/03/28 07:54:44;;;;;;;16.30;11.10;;;12.20;53.70;;;;;;5130336;27;20457;-85
2022/03/28 07:57:14;;;;;;;14.80;9.67;;;12.20;54.20;;;;;;5130556;27;20456;-86
2022/03/28 07:59:42;;;;;;;15.70;9.77;;;12.10;54.60;;;;;;5131135;27;21305;-84
2022/03/28 08:02:09;;;;;;;16.00;9.37;;;12.20;54.50;;;;;;5129922;27;20457;-84
2022/03/28 08:04:37;;;;;;;16.60;10.20;;;12.40;54.40;;;;;;5131511;27;20552;-84
2022/03/28 08:07:05;;;;;;;22.80;10.70;;;12.50;54.40;;;;;;5110774;27;20474;-84
2022/03/28 08:09:32;;;;;;;19.47;10.10;;;12.50;54.60;;;;;;5128573;27;20458;-84
2022/03/28 08:12:00;;;;;;;18.87;10.90;;;12.50;54.60;;;;;;5126190;27;20480;-85
2022/03/28 08:14:29;;;;;;;19.53;11.00;;;12.60;54.80;;;;;;5134246;27;20461;-84
2022/03/28 08:16:56;;;;;;;16.50;10.83;;;12.70;54.80;;;;;;5135057;27;20452;-83
2022/03/28 08:19:23;;;;;;;15.73;10.17;;;12.70;55.20;;;;;;5114770;27;20479;-83
2022/03/28 08:21:50;;;;;;;14.87;9.83;;;12.70;55.40;;;;;;5135867;27;20465;-83
2022/03/28 08:24:18;;;;;;;16.90;11.30;;;12.70;55.40;;;;;;5134115;27;20939;-83
2022/03/28 08:26:46;;;;;;;19.20;11.63;;;12.80;55.50;;;;;;5134081;27;20476;-84
2022/03/28 08:29:13;;;;;;;13.70;9.33;;;13.00;55.40;;;;;;5133991;27;20472;-84
2022/03/28 08:31:41;;;;;;;14.60;10.10;;;13.10;55.40;;;;;;5134350;27;20444;-83
2022/03/28 08:34:09;;;;;;;17.50;10.93;;;13.30;55.00;;;;;;5133834;27;20442;-84
2022/03/28 08:36:36;;;;;;;17.23;10.37;;;13.50;54.80;;;;;;5134877;27;20448;-84
2022/03/28 08:39:07;;;;;;;17.60;10.10;;;13.70;54.80;;;;;;5131678;27;20473;-84
2022/03/28 08:41:34;;;;;;;19.27;11.63;;;13.70;54.70;;;;;;5133207;27;20445;-83
2022/03/28 08:44:02;;;;;;;16.83;11.03;;;13.80;54.80;;;;;;5129729;27;20497;-83
2022/03/28 08:46:30;;;;;;;16.47;10.07;;;14.00;55.00;;;;;;5132472;27;20575;-85
2022/03/28 08:49:00;;;;;;;13.97;11.40;;;14.10;54.90;;;;;;5132045;27;20473;-84
2022/03/28 08:51:28;;;;;;;16.03;10.43;;;14.30;54.40;;;;;;5132978;27;20511;-83
2022/03/28 08:53:56;;;;;;;19.43;11.40;;;14.50;54.30;;;;;;5128780;27;21240;-81
2022/03/28 08:56:23;;;;;;;18.83;10.03;;;14.70;54.10;;;;;;5133811;27;20438;-83
2022/03/28 08:58:50;;;;;;;17.57;10.47;;;14.70;53.90;;;;;;5134527;27;20495;-83
2022/03/28 09:01:19;;;;;;;18.40;10.50;;;14.80;53.90;;;;;;5132203;27;20477;-82
2022/03/28 09:03:48;;;;;;;17.73;11.27;;;14.90;53.90;;;;;;5114983;27;20511;-83
2022/03/28 09:06:34;;;;;;;19.00;12.27;;;15.00;54.10;;;;;;5130684;27;20492;-84
2022/03/28 09:09:27;;;;;;;17.93;12.03;;;15.00;53.90;;;;;;5122774;27;20485;-81
2022/03/28 09:11:56;;;;;;;20.50;12.87;;;15.10;54.40;;;;;;5111856;27;20973;-84
2022/03/28 09:14:28;;;;;;;15.73;10.40;;;15.40;54.10;;;;;;5112774;27;20820;-83
2022/03/28 09:17:05;;;;;;;13.83;9.87;;;15.50;53.90;;;;;;5133213;27;21328;-84
2022/03/28 09:19:43;;;;;;;15.23;10.87;;;15.70;53.90;;;;;;5129902;27;20468;-84
2022/03/28 09:22:13;;;;;;;13.77;9.70;;;15.80;53.40;;;;;;5131127;27;21025;-84
2022/03/28 09:24:41;;;;;;;15.93;10.60;;;16.10;53.60;;;;;;5131804;27;20476;-83
2022/03/28 09:27:12;;;;;;;18.87;11.17;;;16.30;53.20;;;;;;5132395;27;20861;-84
2022/03/28 09:29:53;;;;;;;19.93;12.80;;;16.40;53.20;;;;;;5131792;27;20466;-82
2022/03/28 09:32:21;;;;;;;18.40;11.90;;;16.70;53.20;;;;;;5122275;27;21375;-83
2022/03/28 09:35:09;;;;;;;16.43;11.03;;;16.90;52.10;;;;;;5133717;27;20457;-84
2022/03/28 09:38:01;;;;;;;18.13;12.20;;;17.00;51.80;;;;;;5113434;27;20452;-84
2022/03/28 09:40:37;;;;;;;14.40;10.37;;;17.30;51.50;;;;;;5131404;27;20479;-84
2022/03/28 09:43:06;;;;;;;18.07;11.30;;;17.50;51.00;;;;;;5113682;27;20458;-83
2022/03/28 09:45:37;;;;;;;17.70;11.23;;;17.60;50.80;;;;;;5131837;27;20966;-85
2022/03/28 09:48:06;;;;;;;16.93;11.50;;;17.80;49.90;;;;;;5130209;27;20461;-84
2022/03/28 09:50:37;;;;;;;22.60;11.10;;;18.10;50.20;;;;;;5129353;27;20812;-84
2022/03/28 09:53:16;;;;;;;15.80;11.17;;;18.30;48.80;;;;;;5128164;27;20458;-85
2022/03/28 09:55:52;;;;;;;17.87;11.30;;;18.50;48.80;;;;;;5131010;27;20437;-86
2022/03/28 09:58:33;;;;;;;18.10;11.07;;;18.70;48.90;;;;;;5131970;27;20448;-84
2022/03/28 10:01:01;;;;;;;14.77;9.73;;;19.00;48.00;;;;;;5131656;27;20448;-82
2022/03/28 10:03:33;;;;;;;17.40;10.70;;;19.10;48.10;;;;;;5132667;27;20465;-85
2022/03/28 10:06:01;;;;;;;20.47;11.23;;;19.30;48.20;;;;;;5129598;27;20461;-82
2022/03/28 10:08:30;;;;;;;19.90;11.37;;;19.50;47.00;;;;;;5130698;27;20470;-84
2022/03/28 10:10:58;;;;;;;17.27;11.17;;;19.70;46.80;;;;;;5131588;27;20529;-85
2022/03/28 10:13:26;;;;;;;18.53;11.00;;;19.80;46.80;;;;;;5133638;27;20454;-84
2022/03/28 10:15:54;;;;;;;17.80;10.67;;;20.00;47.30;;;;;;5131546;27;20461;-85
2022/03/28 10:18:21;;;;;;;14.90;9.90;;;20.30;45.80;;;;;;5128826;27;20963;-85
2022/03/28 10:20:53;;;;;;;14.80;9.80;;;20.60;45.30;;;;;;5133130;27;20457;-84
2022/03/28 10:23:23;;;;;;;14.40;9.57;;;20.90;45.40;;;;;;5134000;27;20433;-84
2022/03/28 10:25:53;;;;;;;16.40;10.30;;;21.20;44.60;;;;;;5129919;27;20448;-85
2022/03/28 10:28:21;;;;;;;16.27;10.40;;;21.20;43.90;;;;;;5109715;27;20454;-84
2022/03/28 10:30:48;;;;;;;13.53;9.67;;;21.20;43.00;;;;;;5130170;27;20437;-85
2022/03/28 10:33:18;;;;;;;17.03;10.60;;;21.30;42.20;;;;;;5131558;27;20458;-86
2022/03/28 10:35:56;;;;;;;14.03;9.63;;;21.40;42.50;;;;;;5131786;27;20958;-86
2022/03/28 10:38:24;;;;;;;17.50;10.70;;;21.60;42.70;;;;;;5131255;27;21050;-86
2022/03/28 10:40:58;;;;;;;15.43;9.83;;;21.70;42.40;;;;;;5128848;27;20956;-86
2022/03/28 10:43:27;;;;;;;14.77;10.00;;;21.80;41.10;;;;;;5130134;27;20978;-84
2022/03/28 10:45:57;;;;;;;14.50;9.23;;;22.10;41.30;;;;;;5129633;27;20450;-85
2022/03/28 10:48:39;;;;;;;15.50;9.23;;;22.20;39.40;;;;;;5130133;27;21155;-85
2022/03/28 10:51:08;;;;;;;14.17;9.87;;;22.30;38.60;;;;;;5128938;27;20455;-85
2022/03/28 10:53:39;;;;;;;17.90;9.27;;;22.30;40.20;;;;;;5129717;27;20454;-84
2022/03/28 10:56:13;;;;;;;15.50;9.53;;;22.40;40.10;;;;;;5108629;27;20514;-85
2022/03/28 10:58:42;;;;;;;13.00;8.43;;;22.60;39.60;;;;;;5133464;27;20469;-85
2022/03/28 11:01:20;;;;;;;14.73;8.50;;;22.70;38.40;;;;;;5129031;27;20450;-85
2022/03/28 11:03:51;;;;;;;12.40;7.40;;;22.80;38.00;;;;;;5128853;27;20463;-83
2022/03/28 11:06:19;;;;;;;16.40;8.13;;;23.20;36.20;;;;;;5126834;27;20491;-84
2022/03/28 11:08:59;;;;;;;13.07;7.80;;;23.30;36.00;;;;;;5131658;27;21071;-85
2022/03/28 11:11:32;;;;;;;11.03;6.43;;;23.40;36.60;;;;;;5130539;27;20463;-85
2022/03/28 11:14:03;;;;;;;13.83;6.80;;;23.60;35.50;;;;;;5131043;27;20878;-86
2022/03/28 11:16:41;;;;;;;13.50;6.77;;;23.80;33.60;;;;;;5131445;27;20465;-85
2022/03/28 11:19:29;;;;;;;9.60;6.13;;;23.90;33.40;;;;;;5129233;27;20813;-86
2022/03/28 11:21:58;;;;;;;12.43;7.13;;;23.70;32.60;;;;;;5113164;27;20951;-86
2022/03/28 11:24:48;;;;;;;11.57;7.00;;;23.80;33.20;;;;;;5129913;27;20517;-87
2022/03/28 11:27:17;;;;;;;11.33;6.97;;;24.10;30.80;;;;;;5130141;27;20473;-84
2022/03/28 11:29:46;;;;;;;28.30;11.40;;;24.40;32.10;;;;;;5129493;27;20483;-84
2022/03/28 11:32:14;;;;;;;15.70;7.40;;;24.50;30.90;;;;;;5130266;27;21008;-85
2022/03/28 11:34:42;;;;;;;14.53;7.60;;;24.60;29.80;;;;;;5132836;27;20453;-84
2022/03/28 11:37:09;;;;;;;12.73;7.10;;;24.30;30.20;;;;;;5129313;27;20446;-84
2022/03/28 11:39:56;;;;;;;10.83;6.73;;;24.10;30.00;;;;;;5130932;27;20464;-85
2022/03/28 11:42:27;;;;;;;11.10;7.50;;;24.20;31.00;;;;;;5130130;27;20548;-85
2022/03/28 11:44:55;;;;;;;9.20;6.40;;;24.30;30.90;;;;;;5129849;27;20441;-85
2022/03/28 11:47:23;;;;;;;11.17;6.80;;;24.50;30.20;;;;;;5131547;27;20532;-85
2022/03/28 11:49:59;;;;;;;11.37;6.63;;;24.50;29.60;;;;;;5135548;27;20472;-84
2022/03/28 11:52:28;;;;;;;12.97;8.17;;;24.40;29.60;;;;;;5134199;27;20434;-84
2022/03/28 11:54:57;;;;;;;12.73;6.63;;;24.40;29.80;;;;;;5133031;27;20478;-84
2022/03/28 12:00:16;;;;;;;11.27;7.93;;;25.10;30.00;;;;;;5122755;27;20556;-84
2022/03/28 12:02:53;;;;;;;14.33;9.20;;;25.10;28.30;;;;;;5133930;27;20457;-84
2022/03/28 12:05:28;;;;;;;11.90;6.97;;;24.70;28.20;;;;;;5132701;27;20463;-83
2022/03/28 12:07:55;;;;;;;14.73;7.30;;;24.50;29.20;;;;;;5134098;27;21064;-84
2022/03/28 12:10:28;;;;;;;9.33;6.70;;;24.70;28.30;;;;;;5129922;27;20477;-84
2022/03/28 12:12:57;;;;;;;11.70;6.60;;;24.90;28.60;;;;;;5133758;27;20464;-85
2022/03/28 12:15:29;;;;;;;14.07;7.40;;;25.40;29.20;;;;;;5132571;27;20464;-85
2022/03/28 12:17:58;;;;;;;13.23;6.47;;;25.50;27.50;;;;;;5133840;27;20446;-85
2022/03/28 12:20:28;;;;;;;12.27;6.83;;;25.30;27.50;;;;;;5131216;27;20474;-83
2022/03/28 12:22:55;;;;;;;11.13;7.87;;;25.40;27.90;;;;;;5133753;27;20530;-85
2022/03/28 12:25:30;;;;;;;10.63;7.10;;;25.50;27.60;;;;;;5134090;27;20449;-84
2022/03/28 12:28:00;;;;;;;11.50;7.63;;;25.70;27.90;;;;;;5132569;27;20464;-85
2022/03/28 12:30:35;;;;;;;10.80;9.70;;;25.80;27.90;;;;;;5134805;27;20485;-86
2022/03/28 12:33:16;;;;;;;12.20;7.67;;;26.00;28.10;;;;;;5134625;27;20444;-83
2022/03/28 12:35:45;;;;;;;11.07;7.17;;;25.70;27.60;;;;;;5133582;27;20646;-84
2022/03/28 12:38:17;;;;;;;12.30;7.27;;;25.90;27.40;;;;;;5134454;27;21054;-87
2022/03/28 12:40:46;;;;;;;14.37;7.10;;;25.90;27.60;;;;;;5130887;27;20492;-85
2022/03/28 12:43:16;;;;;;;7.67;6.03;;;25.70;27.20;;;;;;5134177;27;20879;-84
2022/03/28 12:45:43;;;;;;;13.33;7.37;;;25.90;27.00;;;;;;5131924;27;20457;-83
2022/03/28 12:48:12;;;;;;;9.10;6.77;;;25.90;27.80;;;;;;5131736;27;20526;-85